CheckWX is a tool to help pilots better visualize weather data.  It is not intended as a substitute for an official pre-flight weather briefing.

20:27:10 UTC

KMIW METAR
Marshalltown Municipal Airport
Marshalltown, Iowa, USA
Current

34 mins ago

KMIW 201953Z AUTO 18010G15KT 10SM CLR 21/04 A2983 RMK AO2 SLP101 T02110039
Observed
Apr-20 @ 19:53 UTC
Wind
  • 180° at 10 KTS
  • Gusting to 15 KTS
Visibility
10 SM
Flight Rules
VFR
Cloud Levels
  • Clear skies
Temperature
21°C / 70°F
Dewpoint
C / 39°F
Humidity
33%
Altimeter
29.83" Hg
Pressure
1010.12 hPa
Previous

2 hours ago

KMIW 201853Z AUTO 20009KT 10SM CLR 21/03 A2984 RMK AO2 SLP107 T02060033
Observed
Apr-20 @ 18:53 UTC
Wind
  • 200° at 9 KTS
Visibility
10 SM
Flight Rules
VFR
Cloud Levels
  • Clear skies
Temperature
21°C / 70°F
Dewpoint
C / 37°F
Humidity
31%
Altimeter
29.84" Hg
Pressure
1010.52 hPa
Previous

3 hours ago

KMIW 201753Z AUTO VRB04KT 10SM CLR 19/03 A2987 RMK AO2 SLP114 T01940028 10194 20000 58020
Observed
Apr-20 @ 17:53 UTC
Wind
  • Variable at 4 KTS
Visibility
10 SM
Flight Rules
VFR
Cloud Levels
  • Clear skies
Temperature
19°C / 66°F
Dewpoint
C / 37°F
Humidity
35%
Altimeter
29.87" Hg
Pressure
1011.52 hPa